Terminal Aerodrome Forecast
Issued by NWS Wilmington, OH

Home | Current Version | Previous Version | Text Only | Print | Product List | Glossary On
Versions: 1 2 3 4 5 6 7 8 9 10 11 12 13 14 15
000
FTUS41 KILN 221608 AAF
TAFILN
TAF AMD
KILN 221608Z 2216/2312 23012G20KT P6SM BKN030 BKN070
     FM221800 24013G22KT P6SM VCTS BKN035CB
      TEMPO 2218/2220 4SM TSRA OVC025CB
     FM222200 29008KT P6SM BKN035
     FM230700 33007KT P6SM SCT240=

USA.gov is the U.S. government's official web portal to all federal, state and local government web resources and services.